首页
METAR-TAF:

METAR-TAF

机场 :

达拉斯爱田机场

達拉斯, 得克萨斯州, 美国

纬度: 32-51-09N, 经度: 096-51-20W, 海拔: 148米

当前天气观测

该预报发布于30分钟前的20:53 UTC
风速10节,风向东南,有时为18节阵风
温度 34°C
湿度 44%
气压 1012 hPa
能見度: 16.1公里
散云层高于6000英尺
散云层高于25000英尺

METAR: KDAL 152053Z 14010G18KT 10SM SCT060 SCT250 34/20 A2987 RMK AO2 SLP105 T03390200 56018

时间: 16:23 (21:23 UTC)

预报

该预报发布于28分钟前的20:55 UTC
预报有效从15日的 21点(UTC)到 16日的 18点(UTC)
风速9节,风向南转南东
能見度: 10公里
少量云层高于5000英尺
少量云层高于25000英尺

TAF: KDAL 152055Z 1521/1618 16009KT P6SM FEW050 FEW250

超过4000个机场的气象观测和天气预报(METAR&TAF报告)。

可查询的气象台以黄色和红色小点在地图上表示。

将鼠标移到小点上方,可查看气象台名称。

然后点击查看天气观测和预报。

如需切换地图:点击带黑十字的绿色按钮放大地图;点击带横线的绿色按钮缩小地图;或者点击绿色箭头查看邻近地区的地图。


METAR-TAF: